Time;durP1;ratioP1;P1;durP2;ratioP2;P2;SDS_P1;SDS_P2;PMS_P1;PMS_P2;Temp;Humidity;BMP_temperature;BMP_pressure;BME280_temperature;BME280_humidity;BME280_pressure;Samples;Min_cycle;Max_cycle;Signal;HPM_P1;HPM_P2
2023/12/27 00:00:39;;;;;;;1.73;0.90;;;11.40;99.90;;;;;;7396718;19;20190;-82
2023/12/27 00:03:05;;;;;;;0.43;0.40;;;11.40;99.90;;;;;;7396827;19;20167;-81
2023/12/27 00:05:30;;;;;;;1.30;0.43;;;11.40;99.90;;;;;;7396921;19;20151;-80
2023/12/27 00:07:56;;;;;;;0.53;0.53;;;11.50;99.90;;;;;;7399230;19;20491;-81
2023/12/27 00:10:22;;;;;;;0.80;0.80;;;11.50;99.90;;;;;;7397139;19;20135;-81
2023/12/27 00:12:48;;;;;;;0.73;0.70;;;11.50;99.90;;;;;;7397096;19;20214;-81
2023/12/27 00:15:14;;;;;;;1.03;0.50;;;11.40;99.90;;;;;;7397995;19;20146;-82
2023/12/27 00:17:39;;;;;;;0.50;0.50;;;11.30;99.90;;;;;;7398509;19;20142;-81
2023/12/27 00:20:06;;;;;;;0.30;0.30;;;11.40;99.90;;;;;;7397028;19;20127;-81
2023/12/27 00:22:31;;;;;;;0.47;0.47;;;11.30;99.90;;;;;;7396809;19;20167;-81
2023/12/27 00:24:57;;;;;;;0.30;0.30;;;11.30;99.90;;;;;;7394751;19;20150;-81
2023/12/27 00:27:23;;;;;;;1.23;0.37;;;11.30;99.90;;;;;;7396676;19;20123;-81
2023/12/27 00:29:49;;;;;;;0.50;0.50;;;11.30;99.90;;;;;;7397028;19;20224;-81
2023/12/27 00:32:15;;;;;;;0.80;0.43;;;11.30;99.90;;;;;;7397791;19;20126;-81
2023/12/27 00:34:41;;;;;;;0.73;0.60;;;11.40;99.90;;;;;;7396689;19;20171;-81
2023/12/27 00:37:07;;;;;;;0.43;0.43;;;11.50;99.90;;;;;;7396310;19;20130;-81
2023/12/27 00:39:34;;;;;;;1.90;0.40;;;11.50;99.90;;;;;;7396784;19;20154;-81
2023/12/27 00:41:59;;;;;;;0.63;0.50;;;11.70;99.90;;;;;;7395517;19;20134;-81
2023/12/27 00:44:25;;;;;;;0.30;0.30;;;11.50;99.90;;;;;;7397074;19;20592;-81
2023/12/27 00:46:51;;;;;;;0.30;0.30;;;11.40;99.90;;;;;;7397647;19;20134;-81
2023/12/27 00:49:18;;;;;;;0.40;0.40;;;11.40;99.90;;;;;;7393640;19;20156;-82
2023/12/27 00:51:44;;;;;;;0.38;0.38;;;11.40;99.90;;;;;;7398090;19;20130;-81
2023/12/27 00:54:10;;;;;;;0.40;0.30;;;11.40;99.90;;;;;;7394640;19;20457;-82
2023/12/27 00:56:36;;;;;;;0.30;0.30;;;11.40;99.90;;;;;;7394919;19;20131;-81
2023/12/27 00:59:02;;;;;;;0.60;0.60;;;11.50;99.90;;;;;;7396311;19;20134;-81
2023/12/27 01:01:30;;;;;;;0.50;0.50;;;11.70;99.90;;;;;;7393110;19;20214;-80
2023/12/27 01:03:56;;;;;;;0.87;0.77;;;11.60;99.90;;;;;;7394396;19;20185;-82
2023/12/27 01:06:22;;;;;;;0.47;0.40;;;11.50;99.90;;;;;;7395344;19;20135;-82
2023/12/27 01:08:48;;;;;;;0.30;0.30;;;11.40;99.90;;;;;;7395508;19;20139;-81
2023/12/27 01:11:14;;;;;;;0.40;0.40;;;11.50;99.90;;;;;;7395761;19;20149;-82
2023/12/27 01:13:40;;;;;;;0.40;0.40;;;11.50;99.90;;;;;;7395546;19;20145;-82
2023/12/27 01:16:06;;;;;;;0.93;0.60;;;11.50;99.90;;;;;;7394404;19;20222;-82
2023/12/27 01:18:31;;;;;;;1.30;0.57;;;11.50;99.90;;;;;;7394459;19;20135;-82
2023/12/27 01:20:57;;;;;;;0.40;0.40;;;11.20;99.90;;;;;;7392683;19;20628;-82
2023/12/27 01:23:23;;;;;;;0.40;0.40;;;11.00;99.90;;;;;;7396483;19;20143;-82
2023/12/27 01:25:49;;;;;;;1.23;0.70;;;11.30;99.90;;;;;;7394403;19;20158;-82
2023/12/27 01:28:15;;;;;;;1.50;0.40;;;11.20;99.90;;;;;;7393941;19;20619;-81
2023/12/27 01:30:40;;;;;;;1.33;0.57;;;11.30;99.90;;;;;;7397521;19;20165;-82
2023/12/27 01:33:06;;;;;;;0.50;0.50;;;11.40;99.90;;;;;;7396155;19;20146;-80
2023/12/27 01:35:32;;;;;;;0.40;0.40;;;11.30;99.90;;;;;;7393871;19;20227;-81
2023/12/27 01:37:58;;;;;;;0.47;0.47;;;11.30;99.90;;;;;;7395346;19;20142;-81
2023/12/27 01:40:24;;;;;;;2.53;0.50;;;11.40;99.90;;;;;;7393676;19;20135;-82
2023/12/27 01:42:49;;;;;;;0.50;0.50;;;11.30;99.90;;;;;;7394139;19;20604;-82
2023/12/27 01:45:15;;;;;;;0.37;0.37;;;11.40;99.90;;;;;;7395343;19;20167;-81
2023/12/27 01:47:42;;;;;;;0.43;0.43;;;11.40;99.90;;;;;;7393841;19;20158;-82
2023/12/27 01:50:09;;;;;;;0.30;0.30;;;11.40;99.90;;;;;;7397316;19;20150;-82
2023/12/27 01:52:36;;;;;;;2.10;0.70;;;11.50;99.90;;;;;;7393571;19;20466;-82
2023/12/27 01:55:02;;;;;;;2.28;0.55;;;11.40;99.90;;;;;;7394576;19;20143;-82
2023/12/27 01:57:29;;;;;;;0.40;0.30;;;11.40;99.90;;;;;;7394200;19;20167;-81
2023/12/27 01:59:55;;;;;;;0.28;0.28;;;11.40;99.90;;;;;;7388634;19;20143;-81
2023/12/27 02:02:22;;;;;;;0.73;0.40;;;11.40;99.90;;;;;;7394772;19;20167;-81
2023/12/27 02:04:48;;;;;;;0.77;0.60;;;11.20;99.90;;;;;;7393411;19;20204;-81
2023/12/27 02:07:14;;;;;;;0.30;0.30;;;11.10;99.90;;;;;;7394365;19;20810;-81
2023/12/27 02:09:41;;;;;;;0.73;0.70;;;11.20;99.90;;;;;;7393346;19;20139;-82
2023/12/27 02:12:07;;;;;;;0.50;0.50;;;11.40;99.90;;;;;;7395433;19;20151;-82
2023/12/27 02:14:33;;;;;;;1.93;0.97;;;11.30;99.90;;;;;;7394253;19;20126;-81
2023/12/27 02:17:00;;;;;;;1.37;0.77;;;11.30;99.90;;;;;;7394657;19;20166;-81
2023/12/27 02:19:28;;;;;;;0.65;0.50;;;11.30;99.90;;;;;;7393181;19;20154;-81
2023/12/27 02:21:54;;;;;;;0.53;0.50;;;11.00;99.90;;;;;;7393315;19;20134;-81
2023/12/27 02:24:22;;;;;;;0.60;0.57;;;11.10;99.90;;;;;;7393074;19;20138;-81
2023/12/27 02:26:48;;;;;;;0.50;0.50;;;11.10;99.90;;;;;;7395500;19;20143;-82
2023/12/27 02:29:17;;;;;;;0.57;0.50;;;11.10;99.90;;;;;;7392180;19;20206;-82
2023/12/27 02:31:42;;;;;;;0.60;0.60;;;11.10;99.90;;;;;;7393221;19;20142;-82
2023/12/27 02:34:08;;;;;;;0.90;0.60;;;11.10;99.90;;;;;;7393563;19;20525;-81
2023/12/27 02:36:35;;;;;;;1.60;0.87;;;11.10;99.90;;;;;;7392577;19;20131;-81
2023/12/27 02:39:01;;;;;;;0.50;0.50;;;11.10;99.90;;;;;;7393043;19;20130;-81
2023/12/27 02:41:27;;;;;;;0.73;0.60;;;11.10;99.90;;;;;;7389911;19;20139;-82
2023/12/27 02:43:53;;;;;;;0.70;0.60;;;11.10;99.90;;;;;;7393410;19;20169;-81
2023/12/27 02:46:18;;;;;;;0.50;0.50;;;10.80;99.90;;;;;;7391754;19;20186;-81
2023/12/27 02:48:44;;;;;;;0.30;0.30;;;10.80;99.90;;;;;;7397978;19;20224;-81
2023/12/27 02:51:10;;;;;;;0.40;0.40;;;10.80;99.90;;;;;;7398786;19;20161;-81
2023/12/27 02:53:36;;;;;;;0.40;0.40;;;10.60;99.90;;;;;;7399842;19;20150;-81
2023/12/27 02:56:01;;;;;;;0.65;0.60;;;10.60;99.90;;;;;;7398794;19;20139;-81
2023/12/27 02:58:27;;;;;;;1.90;1.10;;;10.60;99.90;;;;;;7399187;19;20458;-81
2023/12/27 03:00:53;;;;;;;0.70;0.63;;;10.80;99.90;;;;;;7398543;19;20608;-80
2023/12/27 03:03:18;;;;;;;1.50;1.10;;;10.90;99.90;;;;;;7397987;19;20165;-81
2023/12/27 03:05:44;;;;;;;2.63;1.37;;;10.90;99.90;;;;;;7396162;19;20154;-81
2023/12/27 03:08:10;;;;;;;1.45;1.33;;;11.00;99.90;;;;;;7400454;19;20151;-81
2023/12/27 03:10:37;;;;;;;1.47;1.27;;;11.00;99.90;;;;;;7399138;19;20214;-81
2023/12/27 03:13:05;;;;;;;2.00;1.40;;;11.00;99.90;;;;;;7401336;19;20587;-81
2023/12/27 03:15:31;;;;;;;1.50;1.17;;;11.00;99.90;;;;;;7401135;19;20140;-82
2023/12/27 03:17:57;;;;;;;0.70;0.70;;;11.00;99.90;;;;;;7399758;19;20616;-82
2023/12/27 03:20:23;;;;;;;2.17;1.20;;;11.10;99.90;;;;;;7396917;19;20127;-81
2023/12/27 03:22:48;;;;;;;1.60;0.83;;;11.10;99.90;;;;;;7398050;19;20123;-82
2023/12/27 03:25:14;;;;;;;0.80;0.70;;;11.10;99.90;;;;;;7399600;19;20149;-81
2023/12/27 03:27:40;;;;;;;3.03;1.57;;;10.50;99.90;;;;;;7397748;19;20151;-82
2023/12/27 03:30:06;;;;;;;1.53;0.90;;;10.60;99.90;;;;;;7399569;19;20174;-81
2023/12/27 03:32:32;;;;;;;1.10;0.80;;;10.80;99.90;;;;;;7399718;19;20135;-81
2023/12/27 03:34:58;;;;;;;0.60;0.60;;;11.00;99.90;;;;;;7396640;19;20127;-81
2023/12/27 03:37:23;;;;;;;1.00;0.70;;;11.00;99.90;;;;;;7397445;19;20138;-81
2023/12/27 03:39:51;;;;;;;0.57;0.57;;;11.00;99.90;;;;;;7398202;19;20139;-82
2023/12/27 03:42:19;;;;;;;0.57;0.57;;;11.00;99.90;;;;;;7396123;19;20616;-82
2023/12/27 03:44:47;;;;;;;0.60;0.60;;;10.90;99.90;;;;;;7399170;19;20147;-81
2023/12/27 03:47:13;;;;;;;1.47;0.97;;;10.90;99.90;;;;;;7398417;19;20605;-81
2023/12/27 03:49:39;;;;;;;2.57;1.40;;;10.80;99.90;;;;;;7398240;19;20126;-81
2023/12/27 03:52:05;;;;;;;1.50;0.83;;;10.90;99.90;;;;;;7397976;19;20146;-81
2023/12/27 03:54:30;;;;;;;3.03;1.23;;;10.90;99.90;;;;;;7398786;19;20141;-82
2023/12/27 03:56:56;;;;;;;1.10;0.80;;;11.00;99.90;;;;;;7397150;19;20194;-80
2023/12/27 03:59:22;;;;;;;1.23;0.60;;;11.10;99.90;;;;;;7398872;19;20130;-82
2023/12/27 04:01:48;;;;;;;0.73;0.70;;;11.10;99.90;;;;;;7396597;19;20143;-82
2023/12/27 04:04:14;;;;;;;0.70;0.70;;;11.00;99.90;;;;;;7395983;19;20226;-81
2023/12/27 04:06:40;;;;;;;0.80;0.60;;;11.00;99.90;;;;;;7398198;19;20153;-81
2023/12/27 04:09:06;;;;;;;1.27;0.80;;;10.90;99.90;;;;;;7396928;19;20588;-81
2023/12/27 04:11:32;;;;;;;0.70;0.60;;;10.90;99.90;;;;;;7398409;19;20164;-82
2023/12/27 04:13:58;;;;;;;0.97;0.80;;;10.80;99.90;;;;;;7396928;19;20142;-81
2023/12/27 04:16:24;;;;;;;1.30;1.13;;;11.00;99.90;;;;;;7396775;19;20142;-81
2023/12/27 04:18:49;;;;;;;1.10;0.93;;;10.80;99.90;;;;;;7397320;19;20145;-80
2023/12/27 04:21:16;;;;;;;0.77;0.73;;;10.90;99.90;;;;;;7394869;19;20563;-81
2023/12/27 04:23:41;;;;;;;1.67;0.87;;;10.90;99.90;;;;;;7397357;19;20142;-80
2023/12/27 04:26:07;;;;;;;1.07;0.93;;;11.00;99.90;;;;;;7395779;19;20507;-80
2023/12/27 04:28:33;;;;;;;1.77;0.90;;;11.00;99.90;;;;;;7396900;19;20568;-80
2023/12/27 04:30:58;;;;;;;2.47;0.80;;;11.00;99.90;;;;;;7396707;19;20533;-81
2023/12/27 04:33:24;;;;;;;1.10;0.90;;;10.90;99.90;;;;;;7398762;19;20159;-81
2023/12/27 04:35:50;;;;;;;1.03;0.70;;;10.90;99.90;;;;;;7396239;19;20624;-80
2023/12/27 04:38:16;;;;;;;1.30;0.73;;;10.90;99.90;;;;;;7396479;19;20242;-80
2023/12/27 04:40:46;;;;;;;0.63;0.63;;;10.80;99.90;;;;;;7395122;19;20138;-80
2023/12/27 04:43:12;;;;;;;1.40;0.50;;;10.80;99.90;;;;;;7395417;19;20960;-80
2023/12/27 04:45:38;;;;;;;1.63;0.67;;;10.80;99.90;;;;;;7395503;19;20138;-80
2023/12/27 04:48:04;;;;;;;0.90;0.80;;;10.80;99.90;;;;;;7397909;19;20165;-81
2023/12/27 04:50:30;;;;;;;3.17;0.80;;;10.80;99.90;;;;;;7395589;19;20138;-79
2023/12/27 04:52:56;;;;;;;1.43;0.90;;;10.90;99.90;;;;;;7394873;19;20676;-80
2023/12/27 04:55:22;;;;;;;1.13;0.73;;;10.90;99.90;;;;;;7393326;19;20149;-80
2023/12/27 04:57:47;;;;;;;2.57;0.80;;;10.80;99.90;;;;;;7395715;19;20139;-81
2023/12/27 05:00:13;;;;;;;1.93;0.83;;;10.90;99.90;;;;;;7395705;19;20158;-81
2023/12/27 05:02:39;;;;;;;1.03;1.00;;;11.00;99.90;;;;;;7395695;19;20158;-80
2023/12/27 05:05:05;;;;;;;1.20;0.60;;;10.80;99.90;;;;;;7393650;19;20244;-81
2023/12/27 05:07:31;;;;;;;1.07;0.80;;;10.90;99.90;;;;;;7394363;19;20153;-81
2023/12/27 05:09:57;;;;;;;1.33;0.70;;;10.80;99.90;;;;;;7395458;19;20150;-81
2023/12/27 05:12:22;;;;;;;1.90;1.30;;;10.70;99.90;;;;;;7394138;19;20146;-81
2023/12/27 05:14:48;;;;;;;1.00;0.50;;;10.80;99.90;;;;;;7396431;19;20142;-80
2023/12/27 05:17:14;;;;;;;1.50;1.03;;;10.60;99.90;;;;;;7394419;19;20135;-80
2023/12/27 05:19:39;;;;;;;2.30;1.23;;;10.60;99.90;;;;;;7395284;19;20131;-81
2023/12/27 05:22:05;;;;;;;2.70;0.93;;;10.60;99.90;;;;;;7393891;19;20142;-81
2023/12/27 05:24:31;;;;;;;1.10;0.90;;;10.50;99.90;;;;;;7394430;19;20183;-81
2023/12/27 05:26:57;;;;;;;1.00;0.90;;;10.40;99.90;;;;;;7395832;19;20150;-81
2023/12/27 05:29:22;;;;;;;1.90;0.93;;;10.40;99.90;;;;;;7395111;19;21381;-81
2023/12/27 05:31:48;;;;;;;0.90;0.80;;;10.50;99.90;;;;;;7394469;19;20492;-81
2023/12/27 05:34:14;;;;;;;1.37;1.00;;;10.30;99.90;;;;;;7395430;19;20135;-81
2023/12/27 05:36:39;;;;;;;4.93;1.23;;;10.60;99.90;;;;;;7394402;19;20154;-81
2023/12/27 05:39:05;;;;;;;2.83;1.23;;;10.50;99.90;;;;;;7395269;19;20138;-80
2023/12/27 05:41:31;;;;;;;2.20;1.07;;;10.70;99.90;;;;;;7393940;19;20154;-80
2023/12/27 05:43:57;;;;;;;1.60;1.30;;;10.40;99.90;;;;;;7394223;19;20186;-80
2023/12/27 05:46:23;;;;;;;1.80;1.00;;;10.40;99.90;;;;;;7393325;19;20134;-80
2023/12/27 05:48:48;;;;;;;1.53;0.90;;;10.40;99.90;;;;;;7393626;19;20153;-81
2023/12/27 05:51:14;;;;;;;2.50;1.03;;;10.20;99.90;;;;;;7393319;19;20127;-80
2023/12/27 05:53:41;;;;;;;1.47;1.10;;;10.20;99.90;;;;;;7393911;19;20134;-80
2023/12/27 05:56:06;;;;;;;0.90;0.67;;;10.20;99.90;;;;;;7394675;19;20143;-80
2023/12/27 05:58:32;;;;;;;1.33;0.70;;;10.30;99.90;;;;;;7394488;19;20143;-79
2023/12/27 06:00:58;;;;;;;0.90;0.70;;;10.30;99.90;;;;;;7393774;19;20205;-81
2023/12/27 06:03:23;;;;;;;3.43;1.10;;;9.90;99.90;;;;;;7392845;19;20147;-81
2023/12/27 06:05:49;;;;;;;0.47;0.43;;;10.00;99.90;;;;;;7394124;19;20146;-80
2023/12/27 06:08:18;;;;;;;0.77;0.67;;;10.10;99.90;;;;;;7392362;19;20258;-80
2023/12/27 06:10:45;;;;;;;0.70;0.70;;;10.80;99.90;;;;;;7394805;19;20143;-79
2023/12/27 06:13:10;;;;;;;1.00;0.90;;;10.30;99.90;;;;;;7394777;19;20499;-80
2023/12/27 06:15:36;;;;;;;0.60;0.60;;;10.40;99.90;;;;;;7393572;19;20139;-81
2023/12/27 06:18:02;;;;;;;0.60;0.60;;;10.50;99.90;;;;;;7393983;19;20150;-81
2023/12/27 06:20:28;;;;;;;0.60;0.60;;;10.40;99.90;;;;;;7392001;19;20135;-79
2023/12/27 06:22:53;;;;;;;0.60;0.60;;;10.50;99.90;;;;;;7395591;19;20147;-78
2023/12/27 06:25:19;;;;;;;0.60;0.47;;;10.20;99.90;;;;;;7398611;19;20138;-77
2023/12/27 06:27:45;;;;;;;0.87;0.40;;;10.00;99.90;;;;;;7399060;19;20159;-79
2023/12/27 06:30:11;;;;;;;0.40;0.40;;;9.80;99.90;;;;;;7401475;19;20210;-80
2023/12/27 06:32:37;;;;;;;1.60;0.68;;;9.80;99.90;;;;;;7399769;19;20705;-82
2023/12/27 06:35:03;;;;;;;0.57;0.57;;;9.90;99.90;;;;;;7400942;19;20412;-81
2023/12/27 06:37:29;;;;;;;0.80;0.80;;;9.80;99.90;;;;;;7400534;19;20146;-81
2023/12/27 06:39:54;;;;;;;0.73;0.70;;;10.10;99.90;;;;;;7401167;19;20167;-81
2023/12/27 06:42:21;;;;;;;0.87;0.60;;;10.20;99.90;;;;;;7398096;19;20146;-82
2023/12/27 06:44:47;;;;;;;0.47;0.47;;;10.30;99.90;;;;;;7400308;19;20155;-80
2023/12/27 06:47:12;;;;;;;1.20;0.80;;;10.30;99.90;;;;;;7400423;19;20143;-80
2023/12/27 06:49:38;;;;;;;1.67;1.00;;;10.20;99.90;;;;;;7400157;19;20163;-81
2023/12/27 06:52:04;;;;;;;0.53;0.53;;;10.20;99.90;;;;;;7399872;19;20143;-81
2023/12/27 06:54:30;;;;;;;1.13;0.63;;;10.30;99.90;;;;;;7399690;19;20487;-80
2023/12/27 06:56:56;;;;;;;1.33;0.70;;;10.30;99.90;;;;;;7400247;19;20154;-79
2023/12/27 06:59:21;;;;;;;0.70;0.60;;;10.30;99.90;;;;;;7400433;19;20131;-80
2023/12/27 07:01:47;;;;;;;0.73;0.73;;;10.40;99.90;;;;;;7398739;19;20185;-80
2023/12/27 07:04:13;;;;;;;1.47;1.07;;;10.20;99.90;;;;;;7398479;19;20208;-81
2023/12/27 07:06:39;;;;;;;0.97;0.53;;;10.10;99.90;;;;;;7399272;19;20127;-80
2023/12/27 07:09:05;;;;;;;0.63;0.57;;;10.30;99.90;;;;;;7399814;19;20138;-82
2023/12/27 07:11:30;;;;;;;1.40;0.70;;;10.30;99.90;;;;;;7399902;19;20590;-81
2023/12/27 07:13:56;;;;;;;0.63;0.63;;;10.30;99.90;;;;;;7400290;19;20612;-81
2023/12/27 07:16:22;;;;;;;0.70;0.70;;;10.20;99.90;;;;;;7399309;19;20145;-81
2023/12/27 07:18:48;;;;;;;0.87;0.70;;;10.20;99.90;;;;;;7397178;19;20138;-81
2023/12/27 07:21:13;;;;;;;0.40;0.40;;;10.20;99.90;;;;;;7398656;19;20142;-80
2023/12/27 07:23:39;;;;;;;1.00;0.77;;;9.80;99.90;;;;;;7397975;19;20167;-79
2023/12/27 07:26:05;;;;;;;0.70;0.70;;;9.80;99.90;;;;;;7394683;19;20503;-79
2023/12/27 07:28:31;;;;;;;0.67;0.67;;;10.10;99.90;;;;;;7396702;19;20157;-78
2023/12/27 07:30:57;;;;;;;0.77;0.73;;;10.10;99.90;;;;;;7396455;19;20135;-79
2023/12/27 07:33:25;;;;;;;0.70;0.70;;;10.20;99.90;;;;;;7396442;19;20166;-79
2023/12/27 07:35:50;;;;;;;0.50;0.50;;;10.30;99.90;;;;;;7396086;19;20139;-77
2023/12/27 07:38:16;;;;;;;1.63;0.53;;;10.30;99.90;;;;;;7394293;19;20171;-78
2023/12/27 07:40:44;;;;;;;0.60;0.60;;;10.20;99.90;;;;;;7391288;19;20490;-78
2023/12/27 07:43:10;;;;;;;0.50;0.50;;;10.30;99.90;;;;;;7395560;19;20139;-78
2023/12/27 07:45:36;;;;;;;0.77;0.60;;;10.30;99.90;;;;;;7395163;19;20154;-78
2023/12/27 07:48:02;;;;;;;0.80;0.70;;;10.30;99.90;;;;;;7393120;19;20142;-76
2023/12/27 07:50:28;;;;;;;1.43;0.70;;;10.30;99.90;;;;;;7395715;19;20146;-77
2023/12/27 07:52:54;;;;;;;0.77;0.70;;;10.30;99.90;;;;;;7394747;19;20597;-76
2023/12/27 07:55:19;;;;;;;2.27;0.83;;;10.30;99.90;;;;;;7395089;19;20157;-78
2023/12/27 07:57:46;;;;;;;0.80;0.80;;;10.30;99.90;;;;;;7395656;19;20143;-78
2023/12/27 08:00:15;;;;;;;0.80;0.80;;;10.20;99.90;;;;;;7395460;19;20167;-77
2023/12/27 08:02:41;;;;;;;1.77;1.07;;;10.30;99.90;;;;;;7393579;19;20155;-77
2023/12/27 08:05:07;;;;;;;1.27;0.60;;;10.30;99.90;;;;;;7394694;19;20202;-79
2023/12/27 08:07:33;;;;;;;1.10;0.93;;;10.20;99.90;;;;;;7395586;19;20138;-77
2023/12/27 08:09:59;;;;;;;1.20;0.80;;;10.10;99.90;;;;;;7395560;19;20142;-78
2023/12/27 08:12:25;;;;;;;2.10;0.50;;;10.20;99.90;;;;;;7393799;19;20135;-76
2023/12/27 08:14:50;;;;;;;2.23;1.60;;;10.10;99.90;;;;;;7393801;19;20175;-77
2023/12/27 08:17:16;;;;;;;2.27;1.33;;;10.20;99.90;;;;;;7394325;19;20142;-77
2023/12/27 08:19:42;;;;;;;1.63;0.90;;;9.80;99.90;;;;;;7391228;19;20134;-76
2023/12/27 08:22:07;;;;;;;1.80;0.97;;;9.90;99.90;;;;;;7391995;19;20138;-76
2023/12/27 08:24:33;;;;;;;0.70;0.60;;;9.90;99.90;;;;;;7392455;19;20164;-76
2023/12/27 08:26:59;;;;;;;2.20;1.23;;;10.00;99.90;;;;;;7393836;19;20143;-78
2023/12/27 08:29:25;;;;;;;2.70;2.10;;;9.90;99.90;;;;;;7391320;19;20152;-76
2023/12/27 08:31:51;;;;;;;0.75;0.75;;;10.00;99.90;;;;;;7395159;19;20127;-77
2023/12/27 08:34:16;;;;;;;3.27;2.27;;;10.20;99.90;;;;;;7394198;19;20150;-75
2023/12/27 08:36:45;;;;;;;1.70;1.17;;;10.30;99.90;;;;;;7392735;19;20160;-76
2023/12/27 08:39:11;;;;;;;1.73;1.43;;;10.40;99.90;;;;;;7393450;19;20142;-75
2023/12/27 08:41:37;;;;;;;0.73;0.70;;;10.50;99.90;;;;;;7391160;19;20219;-76
2023/12/27 08:44:04;;;;;;;0.80;0.80;;;10.30;99.90;;;;;;7391445;19;20138;-75
2023/12/27 08:46:30;;;;;;;1.30;1.10;;;10.40;99.90;;;;;;7392696;19;20150;-76
2023/12/27 08:48:55;;;;;;;2.23;1.50;;;10.40;99.90;;;;;;7390412;19;20130;-75
2023/12/27 08:51:21;;;;;;;1.97;1.60;;;10.40;99.90;;;;;;7392792;19;20665;-74
2023/12/27 08:53:47;;;;;;;3.67;1.90;;;10.40;99.90;;;;;;7392676;19;20139;-76
2023/12/27 08:56:13;;;;;;;1.47;1.10;;;10.40;99.90;;;;;;7392737;19;20147;-75
2023/12/27 08:58:40;;;;;;;2.00;1.30;;;10.50;99.90;;;;;;7391533;19;20537;-74
2023/12/27 09:01:05;;;;;;;0.60;0.60;;;10.50;99.90;;;;;;7391105;19;20146;-75
2023/12/27 09:03:31;;;;;;;1.30;0.97;;;10.50;99.90;;;;;;7392297;19;20150;-76
2023/12/27 09:05:57;;;;;;;1.43;1.10;;;10.50;99.90;;;;;;7390209;19;20517;-76
2023/12/27 09:08:23;;;;;;;1.00;0.57;;;10.40;99.90;;;;;;7391335;19;20158;-77
2023/12/27 09:10:48;;;;;;;1.20;0.80;;;10.30;99.90;;;;;;7393834;19;20130;-76
2023/12/27 09:13:15;;;;;;;1.10;1.00;;;10.40;99.90;;;;;;7390981;19;20210;-75
2023/12/27 09:15:41;;;;;;;1.43;1.20;;;10.50;99.90;;;;;;7389104;19;20147;-75
2023/12/27 09:18:08;;;;;;;1.30;1.00;;;10.40;99.90;;;;;;7389439;19;20147;-75
2023/12/27 09:20:35;;;;;;;2.27;1.60;;;10.50;99.90;;;;;;7388778;19;20242;-76
2023/12/27 09:23:00;;;;;;;0.40;0.40;;;10.50;99.90;;;;;;7388521;19;20209;-74
2023/12/27 09:25:26;;;;;;;2.47;1.43;;;10.50;99.90;;;;;;7390788;19;20142;-75
2023/12/27 09:27:52;;;;;;;1.03;0.70;;;10.50;99.90;;;;;;7392306;19;20502;-77
2023/12/27 09:30:18;;;;;;;3.30;0.73;;;10.50;99.90;;;;;;7389482;19;20131;-76
2023/12/27 09:32:43;;;;;;;1.10;0.70;;;10.50;99.90;;;;;;7388886;19;20135;-76
2023/12/27 09:35:09;;;;;;;3.00;1.40;;;10.60;99.90;;;;;;7392392;19;20230;-76
2023/12/27 09:37:35;;;;;;;1.50;1.27;;;10.70;99.90;;;;;;7389619;19;20160;-77
2023/12/27 09:40:01;;;;;;;2.37;1.40;;;10.70;99.90;;;;;;7391464;19;20141;-76
2023/12/27 09:42:28;;;;;;;2.37;1.50;;;10.60;99.90;;;;;;7388568;19;20146;-77
2023/12/27 09:44:56;;;;;;;0.97;0.60;;;10.50;99.90;;;;;;7391831;19;20130;-75
2023/12/27 09:47:25;;;;;;;0.50;0.50;;;10.50;99.90;;;;;;7390679;19;20130;-75
2023/12/27 09:49:55;;;;;;;1.17;0.70;;;10.50;99.90;;;;;;7388682;19;20161;-76
2023/12/27 09:52:23;;;;;;;1.00;0.70;;;10.40;99.90;;;;;;7389346;19;20447;-76
2023/12/27 09:54:49;;;;;;;1.20;1.00;;;10.60;99.90;;;;;;7388986;19;20146;-76
2023/12/27 09:57:16;;;;;;;1.10;0.80;;;10.50;99.90;;;;;;7394629;19;20140;-79
2023/12/27 09:59:46;;;;;;;0.90;0.70;;;10.40;99.90;;;;;;7397903;19;20146;-76
2023/12/27 10:02:23;;;;;;;1.10;0.70;;;10.50;99.90;;;;;;7396283;19;20163;-76
2023/12/27 10:05:04;;;;;;;0.80;0.60;;;10.50;99.90;;;;;;7397417;19;20178;-77
2023/12/27 10:07:30;;;;;;;0.57;0.57;;;10.50;99.90;;;;;;7396035;19;20126;-78
2023/12/27 10:09:56;;;;;;;1.50;0.93;;;10.50;99.90;;;;;;7399564;19;20617;-76
2023/12/27 10:12:22;;;;;;;1.00;0.77;;;10.60;99.90;;;;;;7396957;19;20146;-79
2023/12/27 10:14:51;;;;;;;1.10;0.80;;;10.50;99.90;;;;;;7400091;19;20163;-78
2023/12/27 10:17:17;;;;;;;0.70;0.70;;;10.60;99.90;;;;;;7397762;19;20146;-77
2023/12/27 10:19:44;;;;;;;0.93;0.83;;;10.60;99.90;;;;;;7395117;19;20157;-77
2023/12/27 10:22:12;;;;;;;1.77;1.03;;;10.60;99.90;;;;;;7395659;19;20134;-77
2023/12/27 10:24:40;;;;;;;1.48;0.95;;;10.70;99.90;;;;;;7399819;19;20135;-77
2023/12/27 10:27:08;;;;;;;0.83;0.70;;;10.90;99.90;;;;;;7397747;19;20154;-78
2023/12/27 10:29:34;;;;;;;0.70;0.70;;;10.60;99.90;;;;;;7398086;19;20160;-78
2023/12/27 10:32:06;;;;;;;0.93;0.83;;;10.90;99.90;;;;;;7397500;19;20478;-78
2023/12/27 10:34:33;;;;;;;0.57;0.57;;;10.90;99.90;;;;;;7398921;19;20135;-78
2023/12/27 10:36:59;;;;;;;3.03;1.10;;;11.00;99.90;;;;;;7396869;19;20286;-78
2023/12/27 10:39:25;;;;;;;0.90;0.80;;;11.00;99.90;;;;;;7396051;19;20145;-79
2023/12/27 10:41:55;;;;;;;0.83;0.60;;;11.00;99.90;;;;;;7396498;19;20150;-77
2023/12/27 10:44:21;;;;;;;1.67;0.90;;;11.10;99.90;;;;;;7398012;19;20142;-77
2023/12/27 10:46:51;;;;;;;0.83;0.80;;;11.30;99.90;;;;;;7393542;19;20661;-78
2023/12/27 10:49:18;;;;;;;0.75;0.75;;;11.30;99.90;;;;;;7397721;19;20134;-78
2023/12/27 10:51:46;;;;;;;1.17;0.97;;;11.40;99.90;;;;;;7398802;19;20131;-78
2023/12/27 10:54:13;;;;;;;1.08;0.90;;;11.40;99.90;;;;;;7397444;19;20151;-76
2023/12/27 10:56:40;;;;;;;1.90;1.67;;;11.40;99.90;;;;;;7396480;19;20565;-77
2023/12/27 10:59:09;;;;;;;1.97;1.60;;;11.50;99.90;;;;;;7397124;19;20161;-78
2023/12/27 11:01:38;;;;;;;0.90;0.60;;;11.50;99.90;;;;;;7394687;19;20131;-77
2023/12/27 11:04:10;;;;;;;0.77;0.77;;;11.70;99.90;;;;;;7395398;19;20159;-79
2023/12/27 11:06:39;;;;;;;2.77;1.30;;;11.40;99.90;;;;;;7397544;19;20177;-77
2023/12/27 11:09:07;;;;;;;0.57;0.57;;;11.50;99.90;;;;;;7394411;19;20138;-77
2023/12/27 11:11:40;;;;;;;1.40;0.68;;;11.80;99.90;;;;;;7397692;19;20478;-76
2023/12/27 11:14:12;;;;;;;0.40;0.40;;;12.00;99.90;;;;;;7395235;19;20149;-77
2023/12/27 11:16:39;;;;;;;1.17;0.87;;;12.10;99.90;;;;;;7396671;19;20151;-78
2023/12/27 11:19:07;;;;;;;1.00;0.80;;;11.90;99.90;;;;;;7395969;19;20150;-77
2023/12/27 11:21:34;;;;;;;0.68;0.55;;;12.10;99.90;;;;;;7394586;19;20142;-77
2023/12/27 11:24:03;;;;;;;0.52;0.50;;;12.30;99.90;;;;;;7395968;19;20222;-77
2023/12/27 11:26:36;;;;;;;0.60;0.60;;;12.40;99.90;;;;;;7394740;19;20127;-78
2023/12/27 11:29:08;;;;;;;1.90;0.70;;;12.30;99.90;;;;;;7394744;19;20142;-78
2023/12/27 11:31:34;;;;;;;0.65;0.50;;;12.50;99.90;;;;;;7397165;19;20138;-77
2023/12/27 11:34:00;;;;;;;1.88;1.00;;;12.70;99.90;;;;;;7394542;19;20131;-77
2023/12/27 11:36:28;;;;;;;0.57;0.57;;;12.50;99.90;;;;;;7395177;19;20158;-78
2023/12/27 11:38:54;;;;;;;0.77;0.67;;;12.40;99.90;;;;;;7396845;19;20217;-77
2023/12/27 11:41:20;;;;;;;1.20;1.10;;;12.50;99.90;;;;;;7395486;19;20147;-76
2023/12/27 11:44:03;;;;;;;0.47;0.47;;;12.50;99.90;;;;;;7387941;19;20158;-77
2023/12/27 11:46:30;;;;;;;0.80;0.80;;;12.50;99.90;;;;;;7396925;19;20151;-78
2023/12/27 11:49:00;;;;;;;0.75;0.70;;;12.60;99.90;;;;;;7395663;19;20162;-77
2023/12/27 11:51:33;;;;;;;0.63;0.57;;;12.70;99.90;;;;;;7396210;19;20146;-77
2023/12/27 11:54:00;;;;;;;0.85;0.63;;;12.60;99.90;;;;;;7395102;19;20183;-76
2023/12/27 11:56:34;;;;;;;0.65;0.43;;;12.70;99.90;;;;;;7395493;19;20127;-77
2023/12/27 11:59:01;;;;;;;0.88;0.65;;;12.90;99.90;;;;;;7393954;19;20151;-77
2023/12/27 12:01:31;;;;;;;0.50;0.50;;;12.90;99.90;;;;;;7395106;19;20146;-77
2023/12/27 12:04:22;;;;;;;1.58;0.73;;;13.00;99.90;;;;;;7392208;19;20290;-79
2023/12/27 12:06:53;;;;;;;0.63;0.55;;;13.20;99.90;;;;;;7396963;19;20498;-78
2023/12/27 12:09:45;;;;;;;1.00;0.63;;;13.20;99.90;;;;;;7396192;19;20135;-79
2023/12/27 12:12:21;;;;;;;0.70;0.50;;;13.20;99.90;;;;;;7395137;19;20509;-77
2023/12/27 12:14:49;;;;;;;0.63;0.60;;;13.20;99.90;;;;;;7394019;19;20134;-76
2023/12/27 12:17:15;;;;;;;1.70;0.80;;;13.10;99.90;;;;;;7394613;19;20139;-77
2023/12/27 12:19:41;;;;;;;1.75;0.98;;;13.00;99.90;;;;;;7396594;19;20135;-77
2023/12/27 12:22:07;;;;;;;0.98;0.70;;;13.10;99.90;;;;;;7394548;19;20139;-76
2023/12/27 12:24:33;;;;;;;0.70;0.70;;;13.10;99.90;;;;;;7391891;19;20139;-76
2023/12/27 12:26:59;;;;;;;0.50;0.50;;;13.00;99.90;;;;;;7395760;19;20178;-77
2023/12/27 12:29:26;;;;;;;0.57;0.55;;;12.60;99.90;;;;;;7392524;19;20149;-75
2023/12/27 12:31:54;;;;;;;1.95;0.50;;;12.70;99.90;;;;;;7396375;19;20137;-77
2023/12/27 12:34:20;;;;;;;1.65;0.82;;;12.70;99.90;;;;;;7394533;19;20138;-76
2023/12/27 12:36:46;;;;;;;2.00;1.00;;;12.80;99.90;;;;;;7394664;19;20221;-76
2023/12/27 12:39:16;;;;;;;2.47;1.02;;;13.10;99.90;;;;;;7393053;19;20126;-76
2023/12/27 12:41:42;;;;;;;1.25;0.82;;;12.90;99.90;;;;;;7393559;19;20604;-76
2023/12/27 12:44:13;;;;;;;0.77;0.77;;;12.90;99.90;;;;;;7393057;19;20176;-78